sensor_id;sensor_type;location;lat;lon;timestamp;P1;durP1;ratioP1;P2;durP2;ratioP2
47725;SDS011;33483;48.294;16.388;2022-09-09T00:06:45;4.57;;;0.73;;
47725;SDS011;33483;48.294;16.388;2022-09-09T00:09:17;1.95;;;0.50;;
47725;SDS011;33483;48.294;16.388;2022-09-09T00:11:49;1.48;;;0.80;;
47725;SDS011;33483;48.294;16.388;2022-09-09T00:16:58;1.30;;;0.70;;
47725;SDS011;33483;48.294;16.388;2022-09-09T00:22:19;0.75;;;0.43;;
47725;SDS011;33483;48.294;16.388;2022-09-09T00:24:51;0.88;;;0.60;;
47725;SDS011;33483;48.294;16.388;2022-09-09T00:30:18;2.47;;;0.40;;
47725;SDS011;33483;48.294;16.388;2022-09-09T00:32:50;4.45;;;0.55;;
47725;SDS011;33483;48.294;16.388;2022-09-09T00:35:22;1.05;;;0.65;;
47725;SDS011;33483;48.294;16.388;2022-09-09T11:53:02;3.78;;;0.80;;
47725;SDS011;33483;48.294;16.388;2022-09-09T11:55:47;1.73;;;0.70;;
47725;SDS011;33483;48.294;16.388;2022-09-09T11:58:16;1.80;;;0.65;;
47725;SDS011;33483;48.294;16.388;2022-09-09T12:00:50;2.55;;;0.80;;
47725;SDS011;33483;48.294;16.388;2022-09-09T12:06:31;2.53;;;1.20;;
47725;SDS011;33483;48.294;16.388;2022-09-09T12:09:08;4.65;;;0.70;;
47725;SDS011;33483;48.294;16.388;2022-09-09T12:11:39;3.63;;;0.80;;
47725;SDS011;33483;48.294;16.388;2022-09-09T12:14:18;1.88;;;0.60;;
47725;SDS011;33483;48.294;16.388;2022-09-09T12:19:43;0.90;;;0.55;;
47725;SDS011;33483;48.294;16.388;2022-09-09T12:24:59;3.55;;;0.68;;
47725;SDS011;33483;48.294;16.388;2022-09-09T12:27:55;2.72;;;0.80;;
47725;SDS011;33483;48.294;16.388;2022-09-09T12:30:55;1.10;;;0.77;;
47725;SDS011;33483;48.294;16.388;2022-09-09T12:33:25;1.83;;;0.60;;
47725;SDS011;33483;48.294;16.388;2022-09-09T12:36:03;1.67;;;0.60;;
47725;SDS011;33483;48.294;16.388;2022-09-09T12:41:04;3.85;;;0.80;;
47725;SDS011;33483;48.294;16.388;2022-09-09T12:43:32;4.18;;;0.65;;
47725;SDS011;33483;48.294;16.388;2022-09-09T12:46:07;2.83;;;0.70;;
47725;SDS011;33483;48.294;16.388;2022-09-09T12:48:45;4.60;;;0.70;;
47725;SDS011;33483;48.294;16.388;2022-09-09T12:51:21;1.13;;;0.60;;
47725;SDS011;33483;48.294;16.388;2022-09-09T12:53:53;0.82;;;0.57;;
47725;SDS011;33483;48.294;16.388;2022-09-09T12:56:27;2.85;;;0.75;;
47725;SDS011;33483;48.294;16.388;2022-09-09T12:58:57;2.28;;;0.68;;
47725;SDS011;33483;48.294;16.388;2022-09-09T13:01:31;1.48;;;0.60;;
47725;SDS011;33483;48.294;16.388;2022-09-09T13:04:02;0.77;;;0.52;;
47725;SDS011;33483;48.294;16.388;2022-09-09T13:06:49;3.67;;;0.75;;
47725;SDS011;33483;48.294;16.388;2022-09-09T13:09:19;3.28;;;0.40;;
47725;SDS011;33483;48.294;16.388;2022-09-09T13:11:52;2.17;;;0.50;;
47725;SDS011;33483;48.294;16.388;2022-09-09T13:14:27;1.00;;;0.55;;
47725;SDS011;33483;48.294;16.388;2022-09-09T13:16:59;2.50;;;0.60;;
47725;SDS011;33483;48.294;16.388;2022-09-09T13:19:29;2.10;;;0.70;;
47725;SDS011;33483;48.294;16.388;2022-09-09T13:22:16;1.25;;;0.45;;
47725;SDS011;33483;48.294;16.388;2022-09-09T13:24:46;2.03;;;0.70;;
47725;SDS011;33483;48.294;16.388;2022-09-09T13:27:27;1.20;;;0.60;;
47725;SDS011;33483;48.294;16.388;2022-09-09T13:29:58;1.50;;;0.90;;
47725;SDS011;33483;48.294;16.388;2022-09-09T13:32:26;3.25;;;0.98;;
47725;SDS011;33483;48.294;16.388;2022-09-09T13:35:02;3.83;;;0.95;;
47725;SDS011;33483;48.294;16.388;2022-09-09T13:40:05;2.50;;;0.85;;
47725;SDS011;33483;48.294;16.388;2022-09-09T13:42:35;2.30;;;0.77;;
47725;SDS011;33483;48.294;16.388;2022-09-09T13:45:20;3.30;;;1.00;;
47725;SDS011;33483;48.294;16.388;2022-09-09T13:47:55;1.23;;;0.82;;
47725;SDS011;33483;48.294;16.388;2022-09-09T13:50:23;2.13;;;0.70;;
47725;SDS011;33483;48.294;16.388;2022-09-09T13:52:55;3.50;;;0.90;;
47725;SDS011;33483;48.294;16.388;2022-09-09T13:55:29;1.27;;;0.73;;
47725;SDS011;33483;48.294;16.388;2022-09-09T13:58:00;1.77;;;0.80;;
47725;SDS011;33483;48.294;16.388;2022-09-09T14:00:31;2.30;;;0.80;;
47725;SDS011;33483;48.294;16.388;2022-09-09T14:03:00;3.20;;;0.57;;
47725;SDS011;33483;48.294;16.388;2022-09-09T14:05:31;2.15;;;0.80;;
47725;SDS011;33483;48.294;16.388;2022-09-09T14:08:00;1.45;;;0.90;;
47725;SDS011;33483;48.294;16.388;2022-09-09T14:10:31;1.42;;;0.90;;
47725;SDS011;33483;48.294;16.388;2022-09-09T14:12:58;5.63;;;0.95;;
47725;SDS011;33483;48.294;16.388;2022-09-09T14:15:28;2.60;;;1.23;;
47725;SDS011;33483;48.294;16.388;2022-09-09T14:17:59;1.23;;;0.95;;
47725;SDS011;33483;48.294;16.388;2022-09-09T14:20:30;2.28;;;1.00;;
47725;SDS011;33483;48.294;16.388;2022-09-09T14:22:57;4.18;;;1.10;;
47725;SDS011;33483;48.294;16.388;2022-09-09T14:25:30;2.13;;;1.00;;
47725;SDS011;33483;48.294;16.388;2022-09-09T14:27:58;3.67;;;1.10;;
47725;SDS011;33483;48.294;16.388;2022-09-09T14:30:25;2.95;;;1.10;;
47725;SDS011;33483;48.294;16.388;2022-09-09T14:32:57;3.38;;;1.17;;
47725;SDS011;33483;48.294;16.388;2022-09-09T14:35:25;3.05;;;1.13;;
47725;SDS011;33483;48.294;16.388;2022-09-09T14:37:57;1.42;;;0.90;;
47725;SDS011;33483;48.294;16.388;2022-09-09T14:40:25;2.28;;;1.20;;
47725;SDS011;33483;48.294;16.388;2022-09-09T14:42:52;3.50;;;1.30;;
47725;SDS011;33483;48.294;16.388;2022-09-09T14:45:20;2.28;;;1.10;;
47725;SDS011;33483;48.294;16.388;2022-09-09T14:47:48;4.30;;;1.17;;
47725;SDS011;33483;48.294;16.388;2022-09-09T14:50:16;3.25;;;0.90;;
47725;SDS011;33483;48.294;16.388;2022-09-09T14:52:46;3.55;;;1.30;;
47725;SDS011;33483;48.294;16.388;2022-09-09T14:55:14;1.85;;;1.15;;
47725;SDS011;33483;48.294;16.388;2022-09-09T14:57:42;2.88;;;1.10;;
47725;SDS011;33483;48.294;16.388;2022-09-09T15:00:12;2.55;;;1.27;;
47725;SDS011;33483;48.294;16.388;2022-09-09T15:02:39;1.42;;;1.02;;
47725;SDS011;33483;48.294;16.388;2022-09-09T15:05:08;2.20;;;1.30;;
47725;SDS011;33483;48.294;16.388;2022-09-09T15:07:35;3.08;;;1.20;;
47725;SDS011;33483;48.294;16.388;2022-09-09T15:10:05;1.40;;;1.10;;
47725;SDS011;33483;48.294;16.388;2022-09-09T15:12:33;6.38;;;1.42;;
47725;SDS011;33483;48.294;16.388;2022-09-09T15:15:02;3.65;;;1.25;;
47725;SDS011;33483;48.294;16.388;2022-09-09T15:17:30;2.97;;;1.05;;
47725;SDS011;33483;48.294;16.388;2022-09-09T15:19:57;5.18;;;2.00;;
47725;SDS011;33483;48.294;16.388;2022-09-09T15:22:24;1.90;;;1.00;;
47725;SDS011;33483;48.294;16.388;2022-09-09T15:24:51;3.97;;;1.48;;
47725;SDS011;33483;48.294;16.388;2022-09-09T15:27:18;3.03;;;1.15;;
47725;SDS011;33483;48.294;16.388;2022-09-09T15:29:45;2.80;;;1.35;;
47725;SDS011;33483;48.294;16.388;2022-09-09T15:32:14;2.78;;;1.17;;
47725;SDS011;33483;48.294;16.388;2022-09-09T15:34:40;5.88;;;1.40;;
47725;SDS011;33483;48.294;16.388;2022-09-09T15:37:11;5.72;;;1.40;;
47725;SDS011;33483;48.294;16.388;2022-09-09T15:39:41;5.07;;;1.52;;
47725;SDS011;33483;48.294;16.388;2022-09-09T15:42:08;3.55;;;1.08;;
47725;SDS011;33483;48.294;16.388;2022-09-09T15:44:42;3.95;;;1.30;;
47725;SDS011;33483;48.294;16.388;2022-09-09T15:47:10;1.92;;;1.23;;
47725;SDS011;33483;48.294;16.388;2022-09-09T15:49:40;6.18;;;1.33;;
47725;SDS011;33483;48.294;16.388;2022-09-09T15:52:08;3.85;;;1.40;;
47725;SDS011;33483;48.294;16.388;2022-09-09T15:54:37;1.70;;;1.00;;
47725;SDS011;33483;48.294;16.388;2022-09-09T15:57:07;2.40;;;0.88;;
47725;SDS011;33483;48.294;16.388;2022-09-09T15:59:38;2.35;;;1.05;;
47725;SDS011;33483;48.294;16.388;2022-09-09T16:02:05;3.25;;;1.10;;
47725;SDS011;33483;48.294;16.388;2022-09-09T16:04:32;2.40;;;1.20;;
47725;SDS011;33483;48.294;16.388;2022-09-09T16:07:02;2.72;;;1.20;;
47725;SDS011;33483;48.294;16.388;2022-09-09T16:09:30;3.10;;;1.23;;
47725;SDS011;33483;48.294;16.388;2022-09-09T16:11:59;1.90;;;1.23;;
47725;SDS011;33483;48.294;16.388;2022-09-09T16:14:32;3.97;;;1.30;;
47725;SDS011;33483;48.294;16.388;2022-09-09T16:17:02;4.40;;;1.35;;
47725;SDS011;33483;48.294;16.388;2022-09-09T16:19:30;3.38;;;1.25;;
47725;SDS011;33483;48.294;16.388;2022-09-09T16:22:01;2.53;;;1.50;;
47725;SDS011;33483;48.294;16.388;2022-09-09T16:24:29;2.85;;;1.40;;
47725;SDS011;33483;48.294;16.388;2022-09-09T16:26:56;6.05;;;1.48;;
47725;SDS011;33483;48.294;16.388;2022-09-09T16:29:23;6.30;;;1.88;;
47725;SDS011;33483;48.294;16.388;2022-09-09T16:31:54;3.17;;;1.30;;
47725;SDS011;33483;48.294;16.388;2022-09-09T16:34:28;2.08;;;1.52;;
47725;SDS011;33483;48.294;16.388;2022-09-09T16:36:55;8.45;;;1.48;;
47725;SDS011;33483;48.294;16.388;2022-09-09T16:39:22;4.00;;;1.50;;
47725;SDS011;33483;48.294;16.388;2022-09-09T16:41:49;3.50;;;1.55;;
47725;SDS011;33483;48.294;16.388;2022-09-09T16:44:17;5.13;;;1.50;;
47725;SDS011;33483;48.294;16.388;2022-09-09T16:46:46;1.52;;;1.13;;
47725;SDS011;33483;48.294;16.388;2022-09-09T16:49:26;4.00;;;1.30;;
47725;SDS011;33483;48.294;16.388;2022-09-09T16:51:56;2.90;;;1.30;;
47725;SDS011;33483;48.294;16.388;2022-09-09T16:54:24;4.35;;;1.20;;
47725;SDS011;33483;48.294;16.388;2022-09-09T16:56:53;3.30;;;1.35;;
47725;SDS011;33483;48.294;16.388;2022-09-09T16:59:21;2.72;;;1.30;;
47725;SDS011;33483;48.294;16.388;2022-09-09T17:01:50;1.92;;;1.17;;
47725;SDS011;33483;48.294;16.388;2022-09-09T17:04:24;7.10;;;1.33;;
47725;SDS011;33483;48.294;16.388;2022-09-09T17:06:54;3.00;;;1.20;;
47725;SDS011;33483;48.294;16.388;2022-09-09T17:09:22;3.53;;;1.30;;
47725;SDS011;33483;48.294;16.388;2022-09-09T17:11:53;3.65;;;1.15;;
47725;SDS011;33483;48.294;16.388;2022-09-09T17:14:21;2.70;;;1.10;;
47725;SDS011;33483;48.294;16.388;2022-09-09T17:16:49;4.15;;;1.55;;
47725;SDS011;33483;48.294;16.388;2022-09-09T17:19:16;3.22;;;1.40;;
47725;SDS011;33483;48.294;16.388;2022-09-09T17:21:44;2.28;;;1.20;;
47725;SDS011;33483;48.294;16.388;2022-09-09T17:24:34;2.55;;;1.27;;
47725;SDS011;33483;48.294;16.388;2022-09-09T17:27:01;3.10;;;1.40;;
47725;SDS011;33483;48.294;16.388;2022-09-09T17:29:28;3.53;;;1.13;;
47725;SDS011;33483;48.294;16.388;2022-09-09T17:31:56;2.58;;;1.40;;
47725;SDS011;33483;48.294;16.388;2022-09-09T17:34:23;2.47;;;1.35;;
47725;SDS011;33483;48.294;16.388;2022-09-09T17:36:51;5.35;;;1.45;;
47725;SDS011;33483;48.294;16.388;2022-09-09T17:39:19;2.95;;;1.08;;
47725;SDS011;33483;48.294;16.388;2022-09-09T17:41:46;4.88;;;1.40;;
47725;SDS011;33483;48.294;16.388;2022-09-09T17:44:13;5.65;;;1.67;;
47725;SDS011;33483;48.294;16.388;2022-09-09T17:46:40;5.55;;;1.30;;
47725;SDS011;33483;48.294;16.388;2022-09-09T17:49:10;5.20;;;1.40;;
47725;SDS011;33483;48.294;16.388;2022-09-09T17:51:42;4.68;;;1.70;;
47725;SDS011;33483;48.294;16.388;2022-09-09T17:54:19;2.22;;;1.27;;
47725;SDS011;33483;48.294;16.388;2022-09-09T17:56:47;2.78;;;1.02;;
47725;SDS011;33483;48.294;16.388;2022-09-09T17:59:15;2.10;;;1.52;;
47725;SDS011;33483;48.294;16.388;2022-09-09T18:01:44;4.18;;;1.20;;
47725;SDS011;33483;48.294;16.388;2022-09-09T18:04:13;3.70;;;1.50;;
47725;SDS011;33483;48.294;16.388;2022-09-09T18:06:42;2.45;;;1.70;;
47725;SDS011;33483;48.294;16.388;2022-09-09T18:09:13;3.95;;;1.92;;
47725;SDS011;33483;48.294;16.388;2022-09-09T18:11:44;2.05;;;1.60;;
47725;SDS011;33483;48.294;16.388;2022-09-09T18:14:14;3.33;;;1.92;;
47725;SDS011;33483;48.294;16.388;2022-09-09T18:16:46;6.18;;;2.08;;
47725;SDS011;33483;48.294;16.388;2022-09-09T18:19:15;6.57;;;2.38;;
47725;SDS011;33483;48.294;16.388;2022-09-09T18:21:51;7.25;;;2.22;;
47725;SDS011;33483;48.294;16.388;2022-09-09T18:24:19;5.78;;;1.75;;
47725;SDS011;33483;48.294;16.388;2022-09-09T18:26:50;4.00;;;1.50;;
47725;SDS011;33483;48.294;16.388;2022-09-09T18:29:19;3.05;;;1.80;;
47725;SDS011;33483;48.294;16.388;2022-09-09T18:31:47;4.60;;;1.70;;
47725;SDS011;33483;48.294;16.388;2022-09-09T18:34:17;4.30;;;1.83;;
47725;SDS011;33483;48.294;16.388;2022-09-09T18:36:46;1.77;;;1.52;;
47725;SDS011;33483;48.294;16.388;2022-09-09T18:39:21;4.38;;;1.70;;
47725;SDS011;33483;48.294;16.388;2022-09-09T18:41:52;7.32;;;1.80;;
47725;SDS011;33483;48.294;16.388;2022-09-09T18:44:22;7.55;;;1.98;;
47725;SDS011;33483;48.294;16.388;2022-09-09T18:46:52;2.97;;;1.58;;
47725;SDS011;33483;48.294;16.388;2022-09-09T18:49:23;1.98;;;1.30;;
47725;SDS011;33483;48.294;16.388;2022-09-09T18:51:51;3.45;;;1.80;;
47725;SDS011;33483;48.294;16.388;2022-09-09T18:54:20;2.15;;;1.55;;
47725;SDS011;33483;48.294;16.388;2022-09-09T18:56:51;7.63;;;1.85;;
47725;SDS011;33483;48.294;16.388;2022-09-09T18:59:19;2.53;;;1.48;;
47725;SDS011;33483;48.294;16.388;2022-09-09T19:01:49;4.00;;;1.70;;
47725;SDS011;33483;48.294;16.388;2022-09-09T19:04:18;3.92;;;1.50;;
47725;SDS011;33483;48.294;16.388;2022-09-09T19:06:48;4.03;;;1.75;;
47725;SDS011;33483;48.294;16.388;2022-09-09T19:09:25;4.70;;;1.63;;
47725;SDS011;33483;48.294;16.388;2022-09-09T19:11:55;1.88;;;1.60;;
47725;SDS011;33483;48.294;16.388;2022-09-09T19:14:22;3.15;;;1.80;;
47725;SDS011;33483;48.294;16.388;2022-09-09T19:16:50;4.20;;;1.70;;
47725;SDS011;33483;48.294;16.388;2022-09-09T19:19:19;3.10;;;1.80;;
47725;SDS011;33483;48.294;16.388;2022-09-09T19:21:48;4.30;;;1.63;;
47725;SDS011;33483;48.294;16.388;2022-09-09T19:24:18;3.55;;;1.90;;
47725;SDS011;33483;48.294;16.388;2022-09-09T19:26:51;2.38;;;1.60;;
47725;SDS011;33483;48.294;16.388;2022-09-09T19:29:29;2.65;;;1.80;;
47725;SDS011;33483;48.294;16.388;2022-09-09T19:31:58;3.80;;;2.13;;
47725;SDS011;33483;48.294;16.388;2022-09-09T19:34:47;3.72;;;2.13;;
47725;SDS011;33483;48.294;16.388;2022-09-09T19:37:15;4.18;;;2.17;;
47725;SDS011;33483;48.294;16.388;2022-09-09T19:39:45;4.40;;;2.15;;
47725;SDS011;33483;48.294;16.388;2022-09-09T19:42:13;3.10;;;2.20;;
47725;SDS011;33483;48.294;16.388;2022-09-09T19:44:41;3.55;;;2.40;;
47725;SDS011;33483;48.294;16.388;2022-09-09T19:47:08;4.32;;;2.15;;
47725;SDS011;33483;48.294;16.388;2022-09-09T19:49:37;3.80;;;2.28;;
47725;SDS011;33483;48.294;16.388;2022-09-09T19:52:12;5.28;;;2.70;;
47725;SDS011;33483;48.294;16.388;2022-09-09T19:54:40;6.38;;;2.38;;
47725;SDS011;33483;48.294;16.388;2022-09-09T19:57:11;6.78;;;2.42;;
47725;SDS011;33483;48.294;16.388;2022-09-09T19:59:38;4.55;;;2.35;;
47725;SDS011;33483;48.294;16.388;2022-09-09T20:02:05;4.63;;;2.60;;
47725;SDS011;33483;48.294;16.388;2022-09-09T20:04:32;5.75;;;2.45;;
47725;SDS011;33483;48.294;16.388;2022-09-09T20:07:00;4.72;;;2.30;;
47725;SDS011;33483;48.294;16.388;2022-09-09T20:09:28;5.43;;;2.42;;
47725;SDS011;33483;48.294;16.388;2022-09-09T20:11:58;9.80;;;2.40;;
47725;SDS011;33483;48.294;16.388;2022-09-09T20:14:25;5.80;;;2.28;;
47725;SDS011;33483;48.294;16.388;2022-09-09T20:16:52;5.30;;;2.20;;
47725;SDS011;33483;48.294;16.388;2022-09-09T20:19:19;3.15;;;2.10;;
47725;SDS011;33483;48.294;16.388;2022-09-09T20:21:47;4.80;;;2.20;;
47725;SDS011;33483;48.294;16.388;2022-09-09T20:24:17;6.20;;;2.08;;
47725;SDS011;33483;48.294;16.388;2022-09-09T20:26:46;3.92;;;2.42;;
47725;SDS011;33483;48.294;16.388;2022-09-09T20:29:15;3.63;;;2.55;;
47725;SDS011;33483;48.294;16.388;2022-09-09T20:31:44;4.13;;;2.50;;
47725;SDS011;33483;48.294;16.388;2022-09-09T20:34:16;4.18;;;2.63;;
47725;SDS011;33483;48.294;16.388;2022-09-09T20:36:47;2.80;;;2.50;;
47725;SDS011;33483;48.294;16.388;2022-09-09T20:39:16;4.18;;;2.85;;
47725;SDS011;33483;48.294;16.388;2022-09-09T20:41:48;4.07;;;2.75;;
47725;SDS011;33483;48.294;16.388;2022-09-09T20:44:19;5.45;;;2.85;;
47725;SDS011;33483;48.294;16.388;2022-09-09T20:46:51;4.72;;;2.90;;
47725;SDS011;33483;48.294;16.388;2022-09-09T20:49:23;5.18;;;2.92;;
47725;SDS011;33483;48.294;16.388;2022-09-09T20:51:52;4.82;;;2.70;;
47725;SDS011;33483;48.294;16.388;2022-09-09T20:54:23;5.60;;;3.25;;
47725;SDS011;33483;48.294;16.388;2022-09-09T20:56:52;5.25;;;3.30;;
47725;SDS011;33483;48.294;16.388;2022-09-09T20:59:22;4.93;;;3.38;;
47725;SDS011;33483;48.294;16.388;2022-09-09T21:01:50;5.88;;;4.00;;
47725;SDS011;33483;48.294;16.388;2022-09-09T21:04:19;5.15;;;3.55;;
47725;SDS011;33483;48.294;16.388;2022-09-09T21:06:49;5.20;;;3.58;;
47725;SDS011;33483;48.294;16.388;2022-09-09T21:09:16;6.55;;;3.90;;
47725;SDS011;33483;48.294;16.388;2022-09-09T21:11:44;6.63;;;3.58;;
47725;SDS011;33483;48.294;16.388;2022-09-09T21:14:12;5.50;;;3.22;;
47725;SDS011;33483;48.294;16.388;2022-09-09T21:16:40;8.65;;;3.33;;
47725;SDS011;33483;48.294;16.388;2022-09-09T21:19:07;5.10;;;3.20;;
47725;SDS011;33483;48.294;16.388;2022-09-09T21:21:35;4.82;;;3.40;;
47725;SDS011;33483;48.294;16.388;2022-09-09T21:24:02;3.85;;;2.60;;
47725;SDS011;33483;48.294;16.388;2022-09-09T21:26:30;4.38;;;2.78;;
47725;SDS011;33483;48.294;16.388;2022-09-09T21:28:57;5.03;;;2.97;;
47725;SDS011;33483;48.294;16.388;2022-09-09T21:31:24;6.93;;;2.60;;
47725;SDS011;33483;48.294;16.388;2022-09-09T21:33:54;3.70;;;2.35;;
47725;SDS011;33483;48.294;16.388;2022-09-09T21:36:23;5.57;;;2.70;;
47725;SDS011;33483;48.294;16.388;2022-09-09T21:38:53;4.18;;;2.60;;
47725;SDS011;33483;48.294;16.388;2022-09-09T21:41:20;5.03;;;3.17;;
47725;SDS011;33483;48.294;16.388;2022-09-09T21:43:50;4.68;;;3.28;;
47725;SDS011;33483;48.294;16.388;2022-09-09T21:46:18;5.93;;;3.90;;
47725;SDS011;33483;48.294;16.388;2022-09-09T21:48:45;8.55;;;4.32;;
47725;SDS011;33483;48.294;16.388;2022-09-09T21:51:14;9.30;;;5.07;;
47725;SDS011;33483;48.294;16.388;2022-09-09T21:53:42;10.23;;;5.90;;
47725;SDS011;33483;48.294;16.388;2022-09-09T21:56:14;10.27;;;6.03;;
47725;SDS011;33483;48.294;16.388;2022-09-09T21:58:43;9.20;;;6.18;;
47725;SDS011;33483;48.294;16.388;2022-09-09T22:01:15;7.20;;;5.78;;
47725;SDS011;33483;48.294;16.388;2022-09-09T22:03:44;11.07;;;6.20;;
47725;SDS011;33483;48.294;16.388;2022-09-09T22:06:13;10.18;;;5.43;;
47725;SDS011;33483;48.294;16.388;2022-09-09T22:08:42;8.13;;;6.10;;
47725;SDS011;33483;48.294;16.388;2022-09-09T22:11:11;10.85;;;6.22;;
47725;SDS011;33483;48.294;16.388;2022-09-09T22:13:43;9.93;;;5.57;;
47725;SDS011;33483;48.294;16.388;2022-09-09T22:16:15;9.50;;;5.63;;
47725;SDS011;33483;48.294;16.388;2022-09-09T22:18:43;8.38;;;4.70;;
47725;SDS011;33483;48.294;16.388;2022-09-09T22:21:14;8.68;;;4.18;;
47725;SDS011;33483;48.294;16.388;2022-09-09T22:23:42;6.70;;;4.40;;
47725;SDS011;33483;48.294;16.388;2022-09-09T22:26:14;7.03;;;3.45;;
47725;SDS011;33483;48.294;16.388;2022-09-09T22:28:41;7.32;;;3.88;;
47725;SDS011;33483;48.294;16.388;2022-09-09T22:31:09;5.53;;;3.95;;
47725;SDS011;33483;48.294;16.388;2022-09-09T22:33:38;6.68;;;4.28;;
47725;SDS011;33483;48.294;16.388;2022-09-09T22:36:05;6.95;;;3.75;;
47725;SDS011;33483;48.294;16.388;2022-09-09T22:38:33;9.02;;;3.88;;
47725;SDS011;33483;48.294;16.388;2022-09-09T22:41:02;5.50;;;3.72;;
47725;SDS011;33483;48.294;16.388;2022-09-09T22:43:30;6.85;;;3.83;;
47725;SDS011;33483;48.294;16.388;2022-09-09T22:46:01;6.18;;;3.80;;
47725;SDS011;33483;48.294;16.388;2022-09-09T22:48:34;5.93;;;4.13;;
47725;SDS011;33483;48.294;16.388;2022-09-09T22:51:04;7.13;;;3.90;;
47725;SDS011;33483;48.294;16.388;2022-09-09T22:53:37;7.53;;;3.92;;
47725;SDS011;33483;48.294;16.388;2022-09-09T22:56:06;7.22;;;3.97;;
47725;SDS011;33483;48.294;16.388;2022-09-09T22:58:39;7.05;;;3.75;;
47725;SDS011;33483;48.294;16.388;2022-09-09T23:01:10;7.43;;;3.63;;
47725;SDS011;33483;48.294;16.388;2022-09-09T23:03:40;5.97;;;3.90;;
47725;SDS011;33483;48.294;16.388;2022-09-09T23:06:09;9.05;;;4.22;;
47725;SDS011;33483;48.294;16.388;2022-09-09T23:08:37;7.03;;;4.78;;
47725;SDS011;33483;48.294;16.388;2022-09-09T23:11:06;8.48;;;5.13;;
47725;SDS011;33483;48.294;16.388;2022-09-09T23:13:38;6.15;;;4.85;;
47725;SDS011;33483;48.294;16.388;2022-09-09T23:16:08;10.93;;;4.90;;
47725;SDS011;33483;48.294;16.388;2022-09-09T23:18:35;7.88;;;5.10;;
47725;SDS011;33483;48.294;16.388;2022-09-09T23:21:02;7.68;;;5.43;;
47725;SDS011;33483;48.294;16.388;2022-09-09T23:23:32;8.18;;;6.10;;
47725;SDS011;33483;48.294;16.388;2022-09-09T23:26:00;8.73;;;5.43;;
47725;SDS011;33483;48.294;16.388;2022-09-09T23:28:29;9.25;;;6.07;;
47725;SDS011;33483;48.294;16.388;2022-09-09T23:31:01;9.63;;;6.15;;
47725;SDS011;33483;48.294;16.388;2022-09-09T23:33:32;8.48;;;6.05;;
47725;SDS011;33483;48.294;16.388;2022-09-09T23:36:00;6.93;;;5.90;;
47725;SDS011;33483;48.294;16.388;2022-09-09T23:38:30;12.40;;;6.43;;
47725;SDS011;33483;48.294;16.388;2022-09-09T23:40:59;9.50;;;6.45;;
47725;SDS011;33483;48.294;16.388;2022-09-09T23:43:27;10.27;;;6.50;;
47725;SDS011;33483;48.294;16.388;2022-09-09T23:45:54;8.45;;;6.45;;
47725;SDS011;33483;48.294;16.388;2022-09-09T23:48:27;10.88;;;7.13;;
47725;SDS011;33483;48.294;16.388;2022-09-09T23:50:57;8.00;;;6.45;;
47725;SDS011;33483;48.294;16.388;2022-09-09T23:53:26;9.13;;;6.13;;
47725;SDS011;33483;48.294;16.388;2022-09-09T23:55:55;9.07;;;6.20;;
47725;SDS011;33483;48.294;16.388;2022-09-09T23:58:24;7.93;;;5.90;;
